Wednesday, September 28, 2016, 9:31 PM EDT

KOKV, Winchester Regional

Location: Winchester, VA, United States Lat: 39.15
Local Time: 9:31 PM EDT ( 1:31 GMT) Lon: -78.15
Time Zone: US/Eastern Elev: 728 ft

Show me the last for .
Show Decoded

2016-09-28 21:15 METAR KOKV 290115Z AUTO 00000KT 7SM OVC006 18/17 A3003 RMK AO2 LTG DSNT SE AND S
                 =
2016-09-28 20:55 METAR KOKV 290055Z AUTO 00000KT 7SM -RA OVC008 18/17 A3004 RMK AO2 LTG DSNT SE
                 AND S =
2016-09-28 20:35 METAR KOKV 290035Z AUTO 00000KT 5SM BR OVC008 17/17 A3003 RMK AO2 LTG DSNT SE =
2016-09-28 20:15 METAR KOKV 290015Z AUTO 00000KT 7SM OVC008 17/17 A3003 RMK AO2 LTG DSNT SE =
2016-09-28 19:55 METAR KOKV 282355Z AUTO 03003KT 7SM OVC006 17/17 A3002 RMK AO2 LTG DSNT SE =
2016-09-28 19:35 METAR KOKV 282335Z AUTO 00000KT 7SM OVC006 17/17 A3002 RMK AO2 LTG DSNT SW =
2016-09-28 19:15 METAR KOKV 282315Z AUTO 00000KT 7SM OVC008 17/16 A3001 RMK AO2 =
2016-09-28 18:55 METAR KOKV 282255Z AUTO 03003KT 7SM OVC010 17/16 A3001 RMK AO2 LTG DSNT NE =
2016-09-28 18:35 METAR KOKV 282235Z AUTO 00000KT 5SM -RA OVC010 17/16 A3002 RMK AO2 LTG DSNT SE =
2016-09-28 18:15 METAR KOKV 282215Z AUTO 00000KT 7SM -DZ OVC010 17/16 A3001 RMK AO2 LTG DSNT E =
2016-09-28 17:55 METAR KOKV 282155Z AUTO 03003KT 7SM DZ OVC012 17/16 A3001 RMK AO2 P0002 =
2016-09-28 17:35 METAR KOKV 282135Z AUTO 07003KT 5SM -RA OVC016 18/16 A3001 RMK AO2 LTG DSNT SE
                 P0002 =
2016-09-28 17:15 METAR KOKV 282115Z AUTO 00000KT 5SM RA OVC016 18/16 A3001 RMK AO2 P0001 =
2016-09-28 16:55 METAR KOKV 282055Z AUTO 06004KT 4SM -RA OVC014 18/16 A3001 RMK AO2 LTG DSNT SE =
2016-09-28 16:35 METAR KOKV 282035Z AUTO 00000KT 10SM -RA OVC014 18/16 A3000 RMK AO2 LTG DSNT S
                 AND SW =
2016-09-28 16:15 METAR KOKV 282015Z AUTO 08004KT 10SM OVC018 19/16 A3000 RMK AO2 LTG DSNT SE =
2016-09-28 15:55 METAR KOKV 281955Z AUTO 06003KT 10SM OVC018 19/16 A3000 RMK AO2 =
2016-09-28 15:35 METAR KOKV 281935Z AUTO 08005KT 10SM OVC016 20/16 A3000 RMK AO2 =
2016-09-28 15:15 METAR KOKV 281915Z AUTO 09005KT 10SM OVC016 19/16 A3001 RMK AO2 =
2016-09-28 14:55 METAR KOKV 281855Z AUTO 09006KT 10SM OVC016 19/15 A3001 RMK AO2 =
2016-09-28 14:35 METAR KOKV 281835Z AUTO 10005KT 10SM OVC016 19/15 A3001 RMK AO2 =
2016-09-28 14:15 METAR KOKV 281815Z AUTO 08006KT 10SM VCTS OVC016 19/15 A3001 RMK AO2 LTG DSNT E
                 =
2016-09-28 13:55 METAR KOKV 281755Z AUTO 07004KT 10SM OVC016 18/15 A3002 RMK AO2 LTG DSNT E =
2016-09-28 13:35 METAR KOKV 281735Z AUTO 10007KT 10SM OVC016 18/15 A3002 RMK AO2 =
2016-09-28 13:15 METAR KOKV 281715Z AUTO 10007KT 10SM VCTS OVC018 18/15 A3001 RMK AO2 =
2016-09-28 12:55 METAR KOKV 281655Z AUTO 08004KT 7SM OVC016 18/15 A3002 RMK AO2 LTG DSNT SE =
2016-09-28 12:35 METAR KOKV 281635Z AUTO 00000KT 7SM OVC018 17/16 A3002 RMK AO2 =
2016-09-28 12:15 METAR KOKV 281615Z AUTO 00000KT 4SM BR OVC020 17/16 A3003 RMK AO2 LTG DSNT SE =
2016-09-28 11:55 METAR KOKV 281555Z AUTO 00000KT 4SM BR BKN022 OVC037 17/16 A3002 RMK AO2 =
2016-09-28 11:35 METAR KOKV 281535Z AUTO 00000KT 4SM DZ SCT014 BKN022 OVC033 17/16 A3003 RMK AO2
                 =
2016-09-28 11:15 METAR KOKV 281515Z AUTO 00000KT 5SM BR SCT008 BKN014 OVC021 17/16 A3001 RMK AO2
                 LTG DSNT SE =
2016-09-28 10:55 METAR KOKV 281455Z AUTO 04003KT 5SM BR BKN006 OVC018 17/16 A3002 RMK AO2 LTG
                 DSNT S =
2016-09-28 10:35 METAR KOKV 281435Z AUTO 03004KT 4SM BR OVC006 17/16 A3001 RMK AO2 =
2016-09-28 10:15 METAR KOKV 281415Z AUTO 01005KT 3SM BR OVC004 16/16 A3001 RMK AO2 =
2016-09-28 09:55 METAR KOKV 281355Z AUTO 02003KT 2 1/2SM BR OVC004 16/16 A3001 RMK AO2 =
2016-09-28 09:35 METAR KOKV 281335Z AUTO 01004KT 2SM BR OVC002 16/16 A3000 RMK AO2 =
2016-09-28 09:15 METAR KOKV 281315Z AUTO 03003KT 2SM BR OVC002 16/16 A2999 RMK AO2 =
2016-09-28 08:55 METAR KOKV 281255Z AUTO 03004KT 1 1/2SM BR OVC002 16/16 A2999 RMK AO2 =
2016-09-28 08:35 METAR KOKV 281235Z AUTO 03004KT 1 1/2SM BR OVC002 16/16 A2998 RMK AO2 =
2016-09-28 08:15 METAR KOKV 281215Z AUTO 02003KT 1 3/4SM BR OVC002 16/16 A2999 RMK AO2 =
2016-09-28 07:55 METAR KOKV 281155Z AUTO 04003KT 2 1/2SM BR OVC004 16/16 A2999 RMK AO2 LTG DSNT
                 SE =
2016-09-28 07:35 METAR KOKV 281135Z AUTO 01003KT 3SM BR OVC004 16/15 A2998 RMK AO2 =
2016-09-28 07:15 METAR KOKV 281115Z AUTO 00000KT 4SM BR OVC004 16/15 A2997 RMK AO2 LTG DSNT SE =
2016-09-28 06:55 METAR KOKV 281055Z AUTO 32004KT 5SM BR OVC004 16/15 A2997 RMK AO2 P0022 =
2016-09-28 06:35 METAR KOKV 281035Z AUTO 35004KT 4SM BR BKN006 OVC011 16/15 A2997 RMK AO2 P0022 =
2016-09-28 06:15 METAR KOKV 281015Z AUTO 00000KT 1 1/2SM +RA OVC006 16/15 A2997 RMK AO2 P0019 =
2016-09-28 05:55 METAR KOKV 280955Z AUTO 01004KT 7SM RA OVC006 16/14 A2996 RMK AO2 LTG DSNT S =
2016-09-28 05:35 METAR KOKV 280935Z AUTO 00000KT 10SM OVC006 16/14 A2996 RMK AO2 =
2016-09-28 05:15 METAR KOKV 280915Z AUTO 34003KT 10SM OVC006 16/13 A2996 RMK AO2 LTG DSNT S =
2016-09-28 04:55 METAR KOKV 280855Z AUTO 01003KT 10SM OVC006 16/13 A2995 RMK AO2 LTG DSNT S =
2016-09-28 04:35 METAR KOKV 280835Z AUTO 00000KT 10SM OVC006 16/13 A2995 RMK AO2 =
2016-09-28 04:15 METAR KOKV 280815Z AUTO 34003KT 10SM SCT006 OVC012 15/13 A2996 RMK AO2 =
2016-09-28 03:55 METAR KOKV 280755Z AUTO 00000KT 10SM OVC012 15/13 A2995 RMK AO2 =
2016-09-28 03:35 METAR KOKV 280735Z AUTO 00000KT 10SM BKN012 OVC037 15/13 A2996 RMK AO2 =
2016-09-28 03:15 METAR KOKV 280715Z AUTO 00000KT 10SM OVC037 15/13 A2996 RMK AO2 LTG DSNT S =
2016-09-28 02:55 METAR KOKV 280655Z AUTO 00000KT 10SM BKN037 14/13 A2995 RMK AO2 =
2016-09-28 02:35 METAR KOKV 280635Z AUTO 00000KT 7SM BKN039 13/12 A2995 RMK AO2 =
2016-09-28 02:15 METAR KOKV 280615Z AUTO 00000KT 10SM BKN037 13/12 A2996 RMK AO2 =
2016-09-28 01:55 METAR KOKV 280555Z AUTO 00000KT 1SM BR VV007 12/12 A2996 RMK AO2 =
2016-09-28 01:35 METAR KOKV 280535Z AUTO 00000KT 4SM BR CLR 13/12 A2995 RMK AO2 =
2016-09-28 01:15 METAR KOKV 280515Z AUTO 00000KT 7SM CLR 13/12 RMK AO2 =
2016-09-28 00:55 METAR KOKV 280455Z AUTO 00000KT 10SM CLR 13/13 A2995 RMK AO2 =
2016-09-28 00:35 METAR KOKV 280435Z AUTO 00000KT 10SM CLR 13/12 A2995 RMK AO2 =
2016-09-28 00:15 METAR KOKV 280415Z AUTO 00000KT 10SM CLR 15/13 A2994 RMK AO2 =
2016-09-27 23:55 METAR KOKV 280355Z AUTO 00000KT 10SM CLR 15/13 A2995 RMK AO2 =
2016-09-27 23:35 METAR KOKV 280335Z AUTO 00000KT 10SM CLR 13/12 A2995 RMK AO2 =
2016-09-27 23:15 METAR KOKV 280315Z AUTO 00000KT 10SM CLR 15/13 A2994 RMK AO2 =
2016-09-27 22:55 METAR KOKV 280255Z AUTO 00000KT 10SM CLR 15/13 A2994 RMK AO2 =
2016-09-27 22:35 METAR KOKV 280235Z AUTO 00000KT 10SM CLR 15/13 A2994 RMK AO2 =
2016-09-27 22:15 METAR KOKV 280215Z AUTO 00000KT 10SM CLR 15/13 A2993 RMK AO2 =
2016-09-27 21:55 METAR KOKV 280155Z AUTO 00000KT 10SM CLR 16/13 A2993 RMK AO2 =
2016-09-27 21:35 METAR KOKV 280135Z AUTO 14003KT 10SM CLR 16/13 A2992 RMK AO2 =

Support USWX by starting your Amazon purchase here.